Time;durP1;ratioP1;P1;durP2;ratioP2;P2;SDS_P1;SDS_P2;PMS_P1;PMS_P2;Temp;Humidity;BMP_temperature;BMP_pressure;BME280_temperature;BME280_humidity;BME280_pressure;Samples;Min_cycle;Max_cycle;Signal;HPM_P1;HPM_P2
2022/04/17 00:01:39;;;;;;;3.57;3.23;;;6.30;95.80;;;;;;5093392;28;20484;-71
2022/04/17 00:04:07;;;;;;;4.90;3.67;;;6.30;96.40;;;;;;5093621;28;20464;-70
2022/04/17 00:06:34;;;;;;;4.20;3.83;;;6.30;96.80;;;;;;5093336;28;20488;-70
2022/04/17 00:09:01;;;;;;;3.87;3.50;;;6.30;97.40;;;;;;5093285;28;20461;-71
2022/04/17 00:11:27;;;;;;;4.23;3.83;;;6.30;98.00;;;;;;5093452;28;20453;-70
2022/04/17 00:13:55;;;;;;;3.50;3.20;;;6.30;98.30;;;;;;5093293;28;20479;-70
2022/04/17 00:16:22;;;;;;;4.00;3.60;;;6.30;98.50;;;;;;5093122;28;20485;-70
2022/04/17 00:18:49;;;;;;;6.73;4.10;;;6.30;98.80;;;;;;5093224;28;20514;-70
2022/04/17 00:21:15;;;;;;;5.60;4.20;;;6.30;99.30;;;;;;5093704;28;20476;-71
2022/04/17 00:23:43;;;;;;;4.10;3.60;;;6.20;99.70;;;;;;5097036;28;20526;-71
2022/04/17 00:26:10;;;;;;;4.40;3.77;;;6.20;99.90;;;;;;5097317;28;20918;-71
2022/04/17 00:28:37;;;;;;;5.07;4.07;;;6.10;99.90;;;;;;5097151;28;20476;-70
2022/04/17 00:31:05;;;;;;;4.73;4.20;;;6.10;99.90;;;;;;5097779;28;20471;-71
2022/04/17 00:33:31;;;;;;;3.67;3.33;;;6.00;99.90;;;;;;5097594;28;20460;-71
2022/04/17 00:35:58;;;;;;;4.73;3.60;;;6.00;99.90;;;;;;5097141;28;20473;-70
2022/04/17 00:38:25;;;;;;;4.03;3.50;;;5.90;99.90;;;;;;5097220;28;20770;-70
2022/04/17 00:40:54;;;;;;;6.90;4.13;;;5.90;99.90;;;;;;5098147;28;20472;-70
2022/04/17 00:43:25;;;;;;;4.37;3.97;;;5.90;99.90;;;;;;5098005;28;20458;-71
2022/04/17 00:45:52;;;;;;;4.57;3.87;;;5.90;99.90;;;;;;5098399;28;20829;-70
2022/04/17 00:48:20;;;;;;;6.80;3.77;;;5.90;99.90;;;;;;5098292;28;20496;-71
2022/04/17 00:50:47;;;;;;;4.40;4.00;;;5.80;99.90;;;;;;5098568;28;20460;-71
2022/04/17 00:53:14;;;;;;;4.57;4.10;;;5.80;99.90;;;;;;5098054;28;20457;-71
2022/04/17 00:55:42;;;;;;;5.10;4.60;;;5.90;99.90;;;;;;5096596;28;20477;-71
2022/04/17 00:58:09;;;;;;;5.13;3.90;;;5.80;99.90;;;;;;5096713;28;20896;-71
2022/04/17 01:00:36;;;;;;;4.00;3.60;;;5.80;99.90;;;;;;5096684;28;20461;-71
2022/04/17 01:03:04;;;;;;;4.50;3.70;;;5.80;99.90;;;;;;5096431;28;20465;-71
2022/04/17 01:05:32;;;;;;;3.93;3.53;;;5.80;99.90;;;;;;5096565;28;20453;-70
2022/04/17 01:07:59;;;;;;;4.13;3.80;;;5.90;99.90;;;;;;5096824;28;20848;-70
2022/04/17 01:10:26;;;;;;;4.30;3.43;;;5.80;99.90;;;;;;5096271;28;20453;-70
2022/04/17 01:12:55;;;;;;;4.30;3.90;;;5.80;99.90;;;;;;5096224;28;20939;-71
2022/04/17 01:15:22;;;;;;;3.50;3.20;;;5.80;99.90;;;;;;5096359;28;20522;-71
2022/04/17 01:17:48;;;;;;;4.00;3.60;;;5.80;99.90;;;;;;5096177;28;20492;-71
2022/04/17 01:20:17;;;;;;;3.97;3.67;;;5.70;99.90;;;;;;5095844;28;20857;-69
2022/04/17 01:22:48;;;;;;;3.60;3.30;;;5.70;99.90;;;;;;5096403;28;20453;-71
2022/04/17 01:27:59;;;;;;;4.13;3.70;;;5.70;99.90;;;;;;5093891;28;20429;-71
2022/04/17 01:30:26;;;;;;;5.50;4.03;;;5.70;99.90;;;;;;5094079;28;20461;-71
2022/04/17 01:32:52;;;;;;;4.07;3.37;;;5.70;99.90;;;;;;5094561;28;20453;-69
2022/04/17 01:35:19;;;;;;;4.00;3.60;;;5.70;99.90;;;;;;5095649;28;20461;-70
2022/04/17 01:37:48;;;;;;;4.37;3.63;;;5.70;99.90;;;;;;5095871;28;20534;-71
2022/04/17 01:40:15;;;;;;;4.40;3.33;;;5.70;99.90;;;;;;5096846;28;20464;-70
2022/04/17 01:42:42;;;;;;;3.77;3.47;;;5.60;99.90;;;;;;5095488;28;20454;-70
2022/04/17 01:45:10;;;;;;;3.50;3.20;;;5.60;99.90;;;;;;5095821;28;20484;-71
2022/04/17 01:47:37;;;;;;;4.07;3.73;;;5.60;99.90;;;;;;5095844;28;20791;-71
2022/04/17 01:50:04;;;;;;;5.03;3.73;;;5.60;99.90;;;;;;5095301;28;20921;-71
2022/04/17 01:52:31;;;;;;;4.37;3.50;;;5.70;99.90;;;;;;5095457;28;20464;-71
2022/04/17 01:54:59;;;;;;;4.40;3.70;;;5.70;99.90;;;;;;5095488;28;20510;-71
2022/04/17 01:57:25;;;;;;;3.93;3.47;;;5.60;99.90;;;;;;5095333;28;20473;-71
2022/04/17 01:59:52;;;;;;;5.73;3.80;;;5.60;99.90;;;;;;5095617;28;20465;-71
2022/04/17 02:02:19;;;;;;;3.53;3.23;;;5.60;99.90;;;;;;5095415;28;20461;-71
2022/04/17 02:04:45;;;;;;;4.67;3.73;;;5.60;99.90;;;;;;5095872;28;20473;-71
2022/04/17 02:07:14;;;;;;;4.07;3.67;;;5.60;99.90;;;;;;5095067;28;20462;-71
2022/04/17 02:09:41;;;;;;;3.97;3.53;;;5.60;99.90;;;;;;5094850;28;20914;-69
2022/04/17 02:12:09;;;;;;;3.57;3.27;;;5.60;99.90;;;;;;5095268;28;20457;-70
2022/04/17 02:14:35;;;;;;;3.80;3.50;;;5.60;99.90;;;;;;5094852;28;20458;-70
2022/04/17 02:17:02;;;;;;;3.83;3.47;;;5.60;99.90;;;;;;5095131;28;20547;-70
2022/04/17 02:19:29;;;;;;;5.87;3.80;;;5.60;99.90;;;;;;5094808;28;20908;-70
2022/04/17 02:21:56;;;;;;;5.10;4.53;;;5.50;99.90;;;;;;5094918;28;20468;-70
2022/04/17 02:24:23;;;;;;;4.13;3.53;;;5.60;99.90;;;;;;5094522;28;20885;-70
2022/04/17 02:26:49;;;;;;;4.17;3.77;;;5.60;99.90;;;;;;5094863;28;20468;-70
2022/04/17 02:29:17;;;;;;;4.77;3.20;;;5.60;99.90;;;;;;5094845;28;20582;-70
2022/04/17 02:31:44;;;;;;;4.67;4.27;;;5.60;99.90;;;;;;5094828;28;20792;-70
2022/04/17 02:34:11;;;;;;;6.13;3.93;;;5.50;99.90;;;;;;5094752;28;20838;-71
2022/04/17 02:36:37;;;;;;;3.90;3.50;;;5.50;99.90;;;;;;5095080;28;20481;-70
2022/04/17 02:39:04;;;;;;;3.83;3.30;;;5.50;99.90;;;;;;5094764;28;20526;-69
2022/04/17 02:41:31;;;;;;;5.17;4.67;;;5.50;99.90;;;;;;5094746;28;20507;-70
2022/04/17 02:43:58;;;;;;;4.83;4.33;;;5.50;99.90;;;;;;5094340;28;20453;-70
2022/04/17 02:49:11;;;;;;;6.03;5.43;;;5.50;99.90;;;;;;5094324;28;20425;-70
2022/04/17 02:51:37;;;;;;;5.00;4.37;;;5.50;99.90;;;;;;5094284;28;20463;-70
2022/04/17 02:54:04;;;;;;;5.47;4.97;;;5.40;99.90;;;;;;5094545;28;20468;-70
2022/04/17 02:56:31;;;;;;;4.50;3.93;;;5.40;99.90;;;;;;5094178;28;20564;-69
2022/04/17 02:58:58;;;;;;;7.80;4.33;;;5.40;99.90;;;;;;5094098;28;20467;-69
2022/04/17 03:06:55;;;;;;;8.80;4.10;;;5.40;99.90;;;;;;5094188;28;20843;-69
2022/04/17 03:09:22;;;;;;;4.60;4.10;;;5.30;99.90;;;;;;5093998;28;20456;-70
2022/04/17 03:11:48;;;;;;;6.50;4.40;;;5.30;99.90;;;;;;5094010;28;20458;-70
2022/04/17 03:14:15;;;;;;;4.53;4.13;;;5.30;99.90;;;;;;5094098;28;20464;-70
2022/04/17 03:16:43;;;;;;;4.30;3.80;;;5.30;99.90;;;;;;5093921;28;20477;-70
2022/04/17 03:19:10;;;;;;;4.53;4.13;;;5.30;99.90;;;;;;5094140;28;20514;-69
2022/04/17 03:21:36;;;;;;;5.93;4.40;;;5.30;99.90;;;;;;5094872;28;20464;-70
2022/04/17 03:24:03;;;;;;;5.63;4.20;;;5.30;99.90;;;;;;5095121;28;20457;-70
2022/04/17 03:26:30;;;;;;;4.97;4.00;;;5.30;99.90;;;;;;5094991;28;20453;-71
2022/04/17 03:28:58;;;;;;;6.97;5.60;;;5.30;99.90;;;;;;5095831;28;20464;-69
2022/04/17 03:31:25;;;;;;;6.10;5.47;;;5.30;99.90;;;;;;5094849;28;20889;-70
2022/04/17 03:33:53;;;;;;;7.17;5.57;;;5.30;99.90;;;;;;5094649;28;20458;-70
2022/04/17 03:36:20;;;;;;;5.70;4.63;;;5.30;99.90;;;;;;5094943;28;20458;-70
2022/04/17 03:38:46;;;;;;;6.33;5.17;;;5.30;99.90;;;;;;5094022;28;20972;-69
2022/04/17 03:41:13;;;;;;;5.97;5.37;;;5.30;99.90;;;;;;5093386;28;20918;-70
2022/04/17 03:43:40;;;;;;;6.90;5.37;;;5.30;99.90;;;;;;5093368;28;20926;-71
2022/04/17 03:46:06;;;;;;;6.00;4.00;;;5.30;99.90;;;;;;5094072;28;20488;-70
2022/04/17 03:48:33;;;;;;;4.87;4.33;;;5.30;99.90;;;;;;5093768;28;20582;-70
2022/04/17 03:51:01;;;;;;;4.90;4.30;;;5.30;99.90;;;;;;5093459;28;20457;-70
2022/04/17 03:53:29;;;;;;;6.30;4.70;;;5.30;99.90;;;;;;5093606;28;20457;-71
2022/04/17 03:55:55;;;;;;;4.57;4.13;;;5.30;99.90;;;;;;5093641;28;20567;-70
2022/04/17 03:58:22;;;;;;;4.53;4.13;;;5.20;99.90;;;;;;5097357;28;20949;-70
2022/04/17 04:00:49;;;;;;;4.27;3.50;;;5.20;99.90;;;;;;5097245;28;20909;-70
2022/04/17 04:03:15;;;;;;;5.30;3.80;;;5.20;99.90;;;;;;5097419;28;20913;-71
2022/04/17 04:05:43;;;;;;;4.40;4.00;;;5.20;99.90;;;;;;5097163;28;20540;-70
2022/04/17 04:08:11;;;;;;;4.33;4.03;;;5.20;99.90;;;;;;5097413;28;20544;-70
2022/04/17 04:10:38;;;;;;;4.20;3.77;;;5.20;99.90;;;;;;5097534;28;20590;-70
2022/04/17 04:13:05;;;;;;;4.53;3.70;;;5.20;99.90;;;;;;5097569;28;20471;-69
2022/04/17 04:15:31;;;;;;;5.67;4.20;;;5.20;99.90;;;;;;5097561;28;20941;-71
2022/04/17 04:17:58;;;;;;;4.90;4.37;;;5.20;99.90;;;;;;5097251;28;20472;-69
2022/04/17 04:20:25;;;;;;;5.40;4.30;;;5.20;99.90;;;;;;5097272;28;20468;-69
2022/04/17 04:22:51;;;;;;;5.03;3.70;;;5.30;99.90;;;;;;5097348;28;20452;-69
2022/04/17 04:25:20;;;;;;;5.17;4.27;;;5.30;99.90;;;;;;5096792;28;20468;-69
2022/04/17 04:30:30;;;;;;;4.50;4.00;;;5.30;99.90;;;;;;5065857;28;20448;-71
2022/04/17 04:32:58;;;;;;;5.43;4.10;;;5.30;99.90;;;;;;5097248;28;20453;-70
2022/04/17 04:35:26;;;;;;;7.77;6.17;;;5.30;99.90;;;;;;5097238;28;20925;-70
2022/04/17 04:37:53;;;;;;;10.43;8.23;;;5.30;99.90;;;;;;5097137;28;20776;-70
2022/04/17 04:40:21;;;;;;;8.47;7.30;;;5.30;99.90;;;;;;5098242;28;20460;-70
2022/04/17 04:42:48;;;;;;;7.37;6.53;;;5.40;99.90;;;;;;5098202;28;20514;-70
2022/04/17 04:47:59;;;;;;;7.00;6.30;;;5.40;99.90;;;;;;5097860;28;20420;-69
2022/04/17 04:50:26;;;;;;;5.10;4.57;;;5.40;99.90;;;;;;5097868;28;20759;-71
2022/04/17 04:52:53;;;;;;;5.07;4.57;;;5.40;99.90;;;;;;5097504;28;20487;-69
2022/04/17 04:55:21;;;;;;;5.10;4.23;;;5.40;99.90;;;;;;5097668;28;20821;-69
2022/04/17 04:57:47;;;;;;;6.10;4.47;;;5.40;99.90;;;;;;5097627;28;20477;-69
2022/04/17 05:00:14;;;;;;;4.77;4.27;;;5.40;99.90;;;;;;5097896;28;20468;-69
2022/04/17 05:02:41;;;;;;;5.10;4.33;;;5.40;99.90;;;;;;5097614;28;20510;-70
2022/04/17 05:05:09;;;;;;;4.80;4.30;;;5.40;99.90;;;;;;5097811;28;20488;-68
2022/04/17 05:07:36;;;;;;;5.40;4.13;;;5.40;99.90;;;;;;5096922;28;20831;-70
2022/04/17 05:10:03;;;;;;;6.03;4.50;;;5.40;99.90;;;;;;5097693;28;20511;-70
2022/04/17 05:12:32;;;;;;;5.87;4.20;;;5.40;99.90;;;;;;5097581;28;20453;-70
2022/04/17 05:14:58;;;;;;;4.97;4.30;;;5.40;99.90;;;;;;5097366;28;20843;-70
2022/04/17 05:17:25;;;;;;;5.37;4.07;;;5.40;99.90;;;;;;5097536;28;20481;-70
2022/04/17 05:19:52;;;;;;;4.50;4.10;;;5.50;99.90;;;;;;5097205;28;20920;-71
2022/04/17 05:22:20;;;;;;;4.67;4.23;;;5.50;99.90;;;;;;5097215;28;20453;-70
2022/04/17 05:24:47;;;;;;;4.80;4.03;;;5.60;99.90;;;;;;5097399;28;20461;-69
2022/04/17 05:27:14;;;;;;;5.50;4.83;;;5.60;99.90;;;;;;5097527;28;20475;-70
2022/04/17 05:29:43;;;;;;;6.03;4.97;;;5.70;99.90;;;;;;5097072;28;20901;-70
2022/04/17 05:32:10;;;;;;;5.90;5.10;;;5.70;99.90;;;;;;5097121;28;20458;-70
2022/04/17 05:34:37;;;;;;;6.77;5.20;;;5.70;99.90;;;;;;5097183;28;20788;-70
2022/04/17 05:37:04;;;;;;;5.37;4.87;;;5.70;99.90;;;;;;5097416;28;20461;-70
2022/04/17 05:39:31;;;;;;;5.97;4.87;;;5.60;99.90;;;;;;5096683;28;20453;-70
2022/04/17 05:41:59;;;;;;;4.73;4.20;;;5.60;99.90;;;;;;5096973;28;20453;-70
2022/04/17 05:44:26;;;;;;;7.47;4.70;;;5.60;99.90;;;;;;5097269;28;20468;-70
2022/04/17 05:46:55;;;;;;;5.70;4.67;;;5.60;99.90;;;;;;5096974;28;20457;-70
2022/04/17 05:49:22;;;;;;;6.10;4.03;;;5.60;99.90;;;;;;5096890;28;20820;-70
2022/04/17 05:51:49;;;;;;;5.80;5.23;;;5.70;99.90;;;;;;5096691;28;20518;-70
2022/04/17 05:54:16;;;;;;;6.10;5.50;;;5.80;99.90;;;;;;5097037;28;20461;-70
2022/04/17 05:56:43;;;;;;;8.70;6.03;;;5.80;99.90;;;;;;5096657;28;20503;-69
2022/04/17 05:59:09;;;;;;;7.83;5.17;;;5.90;99.90;;;;;;5096580;28;20555;-69
2022/04/17 06:01:36;;;;;;;6.63;5.93;;;6.00;99.90;;;;;;5096458;28;20468;-70
2022/04/17 06:04:04;;;;;;;7.43;6.63;;;6.00;99.90;;;;;;5096573;28;20468;-70
2022/04/17 06:06:31;;;;;;;6.53;5.30;;;6.10;99.90;;;;;;5096437;28;20461;-69
2022/04/17 06:08:58;;;;;;;8.43;4.90;;;6.20;99.90;;;;;;5096525;28;20454;-70
2022/04/17 06:11:24;;;;;;;6.10;5.40;;;6.30;99.90;;;;;;5096174;28;20457;-69
2022/04/17 06:13:52;;;;;;;6.00;4.90;;;6.40;99.90;;;;;;5096032;28;20457;-69
2022/04/17 06:16:18;;;;;;;6.00;5.40;;;6.50;99.90;;;;;;5096208;28;20457;-69
2022/04/17 06:18:45;;;;;;;5.67;4.80;;;6.60;99.90;;;;;;5095825;28;20485;-70
2022/04/17 06:21:13;;;;;;;5.40;4.90;;;6.70;99.90;;;;;;5095854;28;20956;-71
2022/04/17 06:23:40;;;;;;;6.13;4.97;;;6.70;99.90;;;;;;5096031;28;20791;-70
2022/04/17 06:26:09;;;;;;;4.90;4.50;;;6.80;99.90;;;;;;5096156;28;20552;-69
2022/04/17 06:28:36;;;;;;;7.40;5.53;;;6.90;99.90;;;;;;5095718;28;20912;-70
2022/04/17 06:31:03;;;;;;;5.50;4.87;;;7.10;99.90;;;;;;5095882;28;20836;-70
2022/04/17 06:33:29;;;;;;;4.67;4.20;;;7.20;99.90;;;;;;5096117;28;20460;-70
2022/04/17 06:35:56;;;;;;;6.40;4.17;;;7.30;99.90;;;;;;5095933;28;20457;-70
2022/04/17 06:38:24;;;;;;;4.87;4.40;;;7.40;99.90;;;;;;5095684;28;20473;-70
2022/04/17 06:40:51;;;;;;;4.67;4.20;;;7.50;99.90;;;;;;5096167;28;20453;-69
2022/04/17 06:43:18;;;;;;;4.93;3.97;;;7.60;99.90;;;;;;5095811;28;20464;-71
2022/04/17 06:45:44;;;;;;;3.90;3.23;;;7.60;99.90;;;;;;5095557;28;20731;-70
2022/04/17 06:48:13;;;;;;;3.87;3.47;;;7.70;99.90;;;;;;5095186;28;20449;-70
2022/04/17 06:50:40;;;;;;;3.57;3.27;;;7.80;99.90;;;;;;5095389;28;20496;-70
2022/04/17 06:53:06;;;;;;;4.03;3.63;;;7.80;99.90;;;;;;5095591;28;20544;-71
2022/04/17 06:55:34;;;;;;;4.33;3.33;;;7.90;99.90;;;;;;5095442;28;20505;-70
2022/04/17 06:58:01;;;;;;;2.90;2.70;;;8.00;99.90;;;;;;5095868;28;20942;-71
2022/04/17 07:00:28;;;;;;;5.40;2.80;;;8.00;99.90;;;;;;5095120;28;20457;-71
2022/04/17 07:02:54;;;;;;;4.27;3.30;;;8.10;99.90;;;;;;5095296;28;20461;-71
2022/04/17 07:05:21;;;;;;;4.10;2.90;;;8.20;99.90;;;;;;5095502;28;20464;-69
2022/04/17 07:07:57;;;;;;;3.53;3.20;;;8.30;99.90;;;;;;5095234;28;20758;-71
2022/04/17 07:10:24;;;;;;;3.00;2.80;;;8.30;99.90;;;;;;5095245;28;20453;-70
2022/04/17 07:12:52;;;;;;;3.20;2.90;;;8.40;99.90;;;;;;5095242;28;20489;-71
2022/04/17 07:15:20;;;;;;;2.50;2.17;;;8.50;99.90;;;;;;5094992;28;20812;-71
2022/04/17 07:17:47;;;;;;;3.40;2.73;;;8.60;99.90;;;;;;5094948;28;20499;-71
2022/04/17 07:20:15;;;;;;;4.17;2.20;;;8.70;99.90;;;;;;5095239;28;20809;-71
2022/04/17 07:22:43;;;;;;;2.40;2.13;;;8.80;99.90;;;;;;5094838;28;20449;-71
2022/04/17 07:25:11;;;;;;;2.63;2.10;;;8.90;99.90;;;;;;5094955;28;20774;-70
2022/04/17 07:27:39;;;;;;;4.90;2.47;;;9.10;99.90;;;;;;5095239;28;20739;-70
2022/04/17 07:30:11;;;;;;;2.73;2.53;;;9.20;99.90;;;;;;5094940;28;20457;-70
2022/04/17 07:32:39;;;;;;;2.80;2.53;;;9.30;99.90;;;;;;5095386;28;20442;-70
2022/04/17 07:35:06;;;;;;;3.37;3.07;;;9.30;99.90;;;;;;5095499;28;20518;-70
2022/04/17 07:37:35;;;;;;;6.70;5.33;;;9.40;99.90;;;;;;5095101;28;20454;-70
2022/04/17 07:40:02;;;;;;;4.97;4.47;;;9.60;99.90;;;;;;5094891;28;20488;-70
2022/04/17 07:42:28;;;;;;;20.43;8.40;;;9.60;99.90;;;;;;5095124;28;20457;-70
2022/04/17 07:44:55;;;;;;;11.70;9.97;;;9.70;99.90;;;;;;5094859;28;20453;-70
2022/04/17 07:47:24;;;;;;;9.70;7.73;;;9.80;99.90;;;;;;5094604;28;20469;-70
2022/04/17 07:49:51;;;;;;;6.07;3.70;;;10.00;99.90;;;;;;5094589;28;20952;-70
2022/04/17 07:52:18;;;;;;;5.87;5.37;;;10.00;99.90;;;;;;5094655;28;20502;-70
2022/04/17 07:54:45;;;;;;;3.53;3.03;;;10.10;99.90;;;;;;5094493;28;20781;-70
2022/04/17 07:57:14;;;;;;;2.93;2.70;;;10.20;99.90;;;;;;5094612;28;20449;-70
2022/04/17 07:59:41;;;;;;;2.93;2.73;;;10.20;99.90;;;;;;5094466;28;20517;-70
2022/04/17 08:02:22;;;;;;;3.57;3.20;;;10.30;99.90;;;;;;5094604;28;20462;-70
2022/04/17 08:04:50;;;;;;;2.80;2.53;;;10.40;99.90;;;;;;5094523;28;20913;-70
2022/04/17 08:07:17;;;;;;;2.50;2.30;;;10.50;99.90;;;;;;5094837;28;20503;-70
2022/04/17 08:09:43;;;;;;;2.50;2.10;;;10.50;99.90;;;;;;5094546;28;20752;-70
2022/04/17 08:12:10;;;;;;;3.70;2.23;;;10.60;99.90;;;;;;5094607;28;20464;-70
2022/04/17 08:14:37;;;;;;;3.40;2.73;;;10.70;99.90;;;;;;5094489;28;20457;-70
2022/04/17 08:17:04;;;;;;;5.17;4.30;;;10.80;99.90;;;;;;5094520;28;20453;-70
2022/04/17 08:19:32;;;;;;;3.50;2.67;;;10.90;99.80;;;;;;5094363;28;20485;-70
2022/04/17 08:22:00;;;;;;;2.90;2.50;;;11.00;99.40;;;;;;5094662;28;20816;-70
2022/04/17 08:24:27;;;;;;;3.30;2.20;;;11.10;98.30;;;;;;5094334;28;20794;-70
2022/04/17 08:26:54;;;;;;;3.00;2.33;;;11.20;97.80;;;;;;5094189;28;20933;-70
2022/04/17 08:29:21;;;;;;;4.00;2.60;;;11.30;97.20;;;;;;5094269;28;20459;-70
2022/04/17 08:31:48;;;;;;;4.10;2.53;;;11.40;96.80;;;;;;5094182;28;20461;-70
2022/04/17 08:34:14;;;;;;;3.80;2.97;;;11.50;95.60;;;;;;5094051;28;20468;-71
2022/04/17 08:36:41;;;;;;;4.00;2.70;;;11.60;95.60;;;;;;5093995;28;20532;-70
2022/04/17 08:39:09;;;;;;;4.63;3.03;;;11.80;95.00;;;;;;5094400;28;20476;-70
2022/04/17 08:41:36;;;;;;;3.73;2.63;;;11.90;95.20;;;;;;5093781;28;20929;-70
2022/04/17 08:44:03;;;;;;;3.60;2.77;;;12.00;95.80;;;;;;5096726;28;20453;-70
2022/04/17 08:46:30;;;;;;;32.13;18.97;;;12.10;95.20;;;;;;5098032;28;20453;-69
2022/04/17 08:48:57;;;;;;;5.47;4.40;;;12.20;95.00;;;;;;5097761;28;20453;-70
2022/04/17 08:51:25;;;;;;;4.27;3.23;;;12.20;96.30;;;;;;5098185;28;20492;-70
2022/04/17 08:53:58;;;;;;;3.90;2.90;;;12.30;95.80;;;;;;5097613;28;20457;-69
2022/04/17 08:56:26;;;;;;;3.83;3.20;;;12.30;96.20;;;;;;5097495;28;20576;-71
2022/04/17 08:58:53;;;;;;;3.60;3.00;;;12.30;95.80;;;;;;5097451;28;20476;-71
2022/04/17 09:01:20;;;;;;;5.30;3.20;;;12.30;95.60;;;;;;5097195;28;20942;-70
2022/04/17 09:03:48;;;;;;;3.77;3.17;;;12.40;94.60;;;;;;5097385;28;20453;-70
2022/04/17 09:06:19;;;;;;;5.63;3.50;;;12.40;94.50;;;;;;5097401;28;20527;-71
2022/04/17 09:08:57;;;;;;;4.97;3.50;;;12.40;94.00;;;;;;5097196;28;20442;-70
2022/04/17 09:11:28;;;;;;;4.10;2.50;;;12.40;93.80;;;;;;5097431;28;20498;-70
2022/04/17 09:13:55;;;;;;;3.67;3.03;;;12.40;93.00;;;;;;5097371;28;20453;-70
2022/04/17 09:16:27;;;;;;;3.13;2.30;;;12.30;93.30;;;;;;5097530;28;20511;-70
2022/04/17 09:18:54;;;;;;;4.53;3.17;;;12.30;93.00;;;;;;5097257;28;20465;-70
2022/04/17 09:21:29;;;;;;;3.60;2.70;;;12.30;93.00;;;;;;5097177;28;20461;-69
2022/04/17 09:24:13;;;;;;;3.33;2.63;;;12.40;92.10;;;;;;5097133;28;20449;-70
2022/04/17 09:26:48;;;;;;;6.90;2.80;;;12.50;92.00;;;;;;5097613;28;20537;-70
2022/04/17 09:29:18;;;;;;;3.27;2.70;;;12.50;91.20;;;;;;5097177;28;20484;-71
2022/04/17 09:31:45;;;;;;;4.53;2.70;;;12.70;90.20;;;;;;5096955;28;20952;-71
2022/04/17 09:34:11;;;;;;;3.53;2.67;;;12.80;90.40;;;;;;5097139;28;20457;-70
2022/04/17 09:36:38;;;;;;;3.90;2.77;;;13.00;89.60;;;;;;5096648;28;20567;-71
2022/04/17 09:39:14;;;;;;;3.07;2.77;;;13.20;89.10;;;;;;5096888;28;20481;-71
2022/04/17 09:41:56;;;;;;;6.03;3.10;;;13.30;84.60;;;;;;5097364;28;20468;-70
2022/04/17 09:44:38;;;;;;;3.03;2.47;;;13.40;83.50;;;;;;5097342;28;20485;-70
2022/04/17 09:47:06;;;;;;;5.20;3.10;;;13.40;82.50;;;;;;5097747;28;20438;-70
2022/04/17 09:49:50;;;;;;;4.40;2.97;;;13.40;82.40;;;;;;5097128;28;20518;-71
2022/04/17 09:52:17;;;;;;;4.53;2.70;;;13.40;82.60;;;;;;5097572;28;20457;-70
2022/04/17 09:54:44;;;;;;;3.40;2.83;;;13.40;83.30;;;;;;5099282;28;20549;-71
2022/04/17 09:57:18;;;;;;;3.53;2.27;;;13.30;81.00;;;;;;5096808;28;20442;-71
2022/04/17 09:59:45;;;;;;;2.53;2.30;;;13.20;80.40;;;;;;5096534;28;20518;-70
2022/04/17 10:02:12;;;;;;;4.87;2.83;;;13.10;81.00;;;;;;5096658;28;20918;-70
2022/04/17 10:04:40;;;;;;;3.43;2.37;;;13.00;81.40;;;;;;5096632;28;20840;-71
2022/04/17 10:07:07;;;;;;;2.30;2.00;;;13.00;81.00;;;;;;5096670;28;20453;-70
2022/04/17 10:09:34;;;;;;;4.90;2.50;;;13.00;81.40;;;;;;5096391;28;20947;-70
2022/04/17 10:12:03;;;;;;;2.73;2.17;;;13.00;81.40;;;;;;5095810;28;20467;-70
2022/04/17 10:14:32;;;;;;;2.67;2.03;;;13.00;81.50;;;;;;5096197;28;20458;-70
2022/04/17 10:17:01;;;;;;;3.10;2.37;;;13.10;81.60;;;;;;5096215;28;20460;-70
2022/04/17 10:19:28;;;;;;;3.77;2.23;;;13.20;81.10;;;;;;5095643;28;20477;-70
2022/04/17 10:22:00;;;;;;;3.63;2.23;;;13.30;80.20;;;;;;5096167;28;20534;-71
2022/04/17 10:24:27;;;;;;;2.93;2.10;;;13.40;80.60;;;;;;5095853;28;20826;-70
2022/04/17 10:26:55;;;;;;;2.53;2.33;;;13.50;79.00;;;;;;5096279;28;20453;-69
2022/04/17 10:29:26;;;;;;;3.10;2.13;;;13.70;77.00;;;;;;5095998;28;20463;-71
2022/04/17 10:32:26;;;;;;;2.73;2.00;;;13.80;75.50;;;;;;5095964;28;20894;-69
2022/04/17 10:35:12;;;;;;;4.73;2.40;;;13.90;74.40;;;;;;5095702;28;20468;-69
2022/04/17 10:38:18;;;;;;;2.10;1.90;;;14.00;73.20;;;;;;5096140;28;20808;-70
2022/04/17 10:40:52;;;;;;;3.00;2.07;;;14.00;73.60;;;;;;5091321;28;20495;-69
2022/04/17 10:43:19;;;;;;;3.70;1.80;;;14.00;72.50;;;;;;5095782;28;20552;-70
2022/04/17 10:46:08;;;;;;;2.10;1.90;;;14.00;72.10;;;;;;5095879;28;20470;-69
2022/04/17 10:48:47;;;;;;;3.07;2.20;;;14.00;71.40;;;;;;5095723;28;20457;-70
2022/04/17 10:51:16;;;;;;;3.23;2.40;;;14.00;71.10;;;;;;5096274;28;20451;-70
2022/04/17 10:54:07;;;;;;;4.27;3.03;;;14.10;72.10;;;;;;5095404;28;20454;-70
2022/04/17 10:56:34;;;;;;;2.70;2.30;;;14.30;72.70;;;;;;5070592;28;20482;-70
2022/04/17 10:59:05;;;;;;;4.07;2.53;;;14.30;70.60;;;;;;5095227;28;20481;-70
2022/04/17 11:01:52;;;;;;;2.10;1.90;;;14.40;67.50;;;;;;5095071;28;20894;-70
2022/04/17 11:04:22;;;;;;;2.20;1.80;;;14.60;66.70;;;;;;5095433;28;20961;-70
2022/04/17 11:06:54;;;;;;;16.90;11.03;;;14.80;66.10;;;;;;5094954;28;20465;-70
2022/04/17 11:09:22;;;;;;;8.67;1.90;;;15.00;61.90;;;;;;5095607;28;20946;-70
2022/04/17 11:11:49;;;;;;;3.23;2.20;;;15.30;61.50;;;;;;5095371;28;20522;-70
2022/04/17 11:14:19;;;;;;;3.30;1.70;;;15.50;59.40;;;;;;5094967;28;20467;-71
2022/04/17 11:16:49;;;;;;;3.10;2.03;;;15.70;58.20;;;;;;5094726;28;20918;-70
2022/04/17 11:19:17;;;;;;;3.53;1.50;;;15.80;56.00;;;;;;5095115;28;20484;-70
2022/04/17 11:21:47;;;;;;;2.70;1.47;;;15.90;55.80;;;;;;5094978;28;20526;-70
2022/04/17 11:24:14;;;;;;;2.77;1.40;;;16.10;54.20;;;;;;5096422;28;20457;-70
2022/04/17 11:27:12;;;;;;;1.93;1.60;;;16.60;52.80;;;;;;5094831;28;20457;-72
2022/04/17 11:29:50;;;;;;;1.57;1.20;;;17.40;48.60;;;;;;5095245;28;20468;-70
2022/04/17 11:32:52;;;;;;;2.27;1.30;;;18.20;45.50;;;;;;5095017;28;20450;-71
2022/04/17 11:35:21;;;;;;;3.03;1.97;;;18.90;44.70;;;;;;5094311;28;20490;-71
2022/04/17 11:37:54;;;;;;;3.70;3.10;;;19.20;44.10;;;;;;5094649;28;21090;-71
2022/04/17 11:40:23;;;;;;;1.93;1.57;;;19.60;43.10;;;;;;5094515;28;20481;-70
2022/04/17 11:42:51;;;;;;;1.80;1.70;;;20.20;42.00;;;;;;5094491;28;20453;-70
2022/04/17 11:45:19;;;;;;;2.37;1.50;;;20.60;40.60;;;;;;5094914;28;20456;-70
2022/04/17 11:47:47;;;;;;;1.60;1.50;;;21.00;39.90;;;;;;5094649;28;20457;-70
2022/04/17 11:50:26;;;;;;;1.77;1.40;;;21.30;38.40;;;;;;5094639;28;20461;-70
2022/04/17 11:52:55;;;;;;;2.23;1.33;;;21.80;37.20;;;;;;5094669;28;20525;-71
2022/04/17 11:55:30;;;;;;;2.30;1.57;;;22.20;35.80;;;;;;5094354;28;20481;-70
2022/04/17 11:57:57;;;;;;;1.63;1.50;;;22.00;34.40;;;;;;5094969;28;20521;-71
2022/04/17 12:00:26;;;;;;;3.63;1.93;;;21.40;34.60;;;;;;5094539;28;20488;-71
2022/04/17 12:03:01;;;;;;;2.77;1.53;;;21.00;35.60;;;;;;5094733;28;20458;-70
2022/04/17 12:05:28;;;;;;;2.30;2.10;;;21.40;36.50;;;;;;5094617;28;20477;-70
2022/04/17 12:08:09;;;;;;;3.77;2.47;;;21.90;37.10;;;;;;5094540;28;20464;-70
2022/04/17 12:10:38;;;;;;;2.20;1.90;;;22.30;36.80;;;;;;5094361;28;20473;-69
2022/04/17 12:13:16;;;;;;;2.73;2.00;;;22.30;35.20;;;;;;5094638;28;20461;-70
2022/04/17 12:15:43;;;;;;;3.43;2.27;;;22.60;34.90;;;;;;5094262;28;20452;-70
2022/04/17 12:18:10;;;;;;;2.87;2.20;;;22.90;35.20;;;;;;5095993;28;20456;-69
2022/04/17 12:20:38;;;;;;;2.50;2.03;;;23.10;33.90;;;;;;5098406;28;20514;-70
2022/04/17 12:23:07;;;;;;;3.23;2.47;;;23.20;34.10;;;;;;5098353;28;20920;-70
2022/04/17 12:25:35;;;;;;;3.00;2.27;;;23.40;33.40;;;;;;5098769;28;20528;-70
2022/04/17 12:28:02;;;;;;;2.40;1.80;;;23.70;32.50;;;;;;5098660;28;20457;-70
2022/04/17 12:30:29;;;;;;;2.20;1.50;;;24.00;31.50;;;;;;5098049;28;20453;-70
2022/04/17 12:32:59;;;;;;;4.07;1.90;;;24.20;30.40;;;;;;5097908;28;20944;-69
2022/04/17 12:35:28;;;;;;;2.00;1.53;;;24.30;29.50;;;;;;5098119;28;20450;-71
2022/04/17 12:38:10;;;;;;;2.27;1.60;;;24.10;28.70;;;;;;5098446;28;20789;-70
2022/04/17 12:40:43;;;;;;;1.97;1.57;;;23.40;27.60;;;;;;5097450;28;20480;-70
2022/04/17 12:43:17;;;;;;;1.87;1.23;;;22.80;27.90;;;;;;5098468;28;20536;-70
2022/04/17 12:45:55;;;;;;;15.10;11.20;;;22.20;28.10;;;;;;5097683;28;20494;-70
2022/04/17 12:48:26;;;;;;;2.30;1.63;;;21.70;28.50;;;;;;5098148;28;20452;-70
2022/04/17 12:50:57;;;;;;;1.23;1.13;;;21.40;28.60;;;;;;5097974;28;20473;-70
2022/04/17 12:53:25;;;;;;;1.90;1.33;;;21.20;28.40;;;;;;5097547;28;20457;-70
2022/04/17 12:55:53;;;;;;;1.70;1.40;;;21.30;28.80;;;;;;5097407;28;20494;-70
2022/04/17 12:58:20;;;;;;;3.03;1.57;;;21.90;28.80;;;;;;5097594;28;20606;-71
2022/04/17 13:00:55;;;;;;;2.83;2.10;;;22.40;28.90;;;;;;5097610;28;20477;-71
2022/04/17 13:03:23;;;;;;;4.33;3.93;;;22.80;28.60;;;;;;5097764;28;20436;-71
2022/04/17 13:05:59;;;;;;;2.73;2.50;;;23.30;28.90;;;;;;5097587;28;20460;-71
2022/04/17 13:08:27;;;;;;;1.60;1.50;;;24.10;27.50;;;;;;5097352;28;20473;-71
2022/04/17 13:10:54;;;;;;;2.43;2.13;;;24.60;26.60;;;;;;5096937;28;20918;-71
2022/04/17 13:13:36;;;;;;;4.03;1.87;;;24.80;25.80;;;;;;5097509;28;20488;-71
2022/04/17 13:16:03;;;;;;;3.03;1.97;;;25.10;26.00;;;;;;5097018;28;20445;-71
2022/04/17 13:18:33;;;;;;;9.60;2.20;;;25.10;26.60;;;;;;5096914;28;20465;-71